sensor_id;sensor_type;location;lat;lon;timestamp;pressure;altitude;pressure_sealevel;temperature
71960;BMP280;59832;51.146;14.024;2023-07-20T04:02:31;97937.94;;;15.24
71960;BMP280;59832;51.146;14.024;2023-07-20T04:04:58;97942.66;;;15.29
71960;BMP280;59832;51.146;14.024;2023-07-20T04:07:24;97941.94;;;15.32
71960;BMP280;59832;51.146;14.024;2023-07-20T04:09:51;97939.00;;;15.34
71960;BMP280;59832;51.146;14.024;2023-07-20T04:12:17;97935.69;;;15.33
71960;BMP280;59832;51.146;14.024;2023-07-20T04:14:44;97946.28;;;15.39
71960;BMP280;59832;51.146;14.024;2023-07-20T04:17:10;97952.19;;;15.32
71960;BMP280;59832;51.146;14.024;2023-07-20T04:19:39;97945.88;;;15.40
71960;BMP280;59832;51.146;14.024;2023-07-20T04:22:05;97948.09;;;15.38
71960;BMP280;59832;51.146;14.024;2023-07-20T04:24:32;97945.88;;;15.40
71960;BMP280;59832;51.146;14.024;2023-07-20T04:26:59;97948.81;;;15.42
71960;BMP280;59832;51.146;14.024;2023-07-20T04:29:25;97952.78;;;15.47
71960;BMP280;59832;51.146;14.024;2023-07-20T04:31:52;97950.56;;;15.52
71960;BMP280;59832;51.146;14.024;2023-07-20T04:34:18;97948.31;;;15.54
71960;BMP280;59832;51.146;14.024;2023-07-20T04:36:45;97951.22;;;15.56
71960;BMP280;59832;51.146;14.024;2023-07-20T04:39:12;97953.44;;;15.61
71960;BMP280;59832;51.146;14.024;2023-07-20T04:41:57;97955.16;;;15.68
71960;BMP280;59832;51.146;14.024;2023-07-20T04:44:24;97958.47;;;15.68
71960;BMP280;59832;51.146;14.024;2023-07-20T04:46:50;97947.78;;;15.77
71960;BMP280;59832;51.146;14.024;2023-07-20T04:49:17;97940.34;;;15.86
71960;BMP280;59832;51.146;14.024;2023-07-20T04:51:45;97951.78;;;15.78
71960;BMP280;59832;51.146;14.024;2023-07-20T04:54:11;97950.03;;;15.68
71960;BMP280;59832;51.146;14.024;2023-07-20T04:56:38;97950.34;;;15.77
71960;BMP280;59832;51.146;14.024;2023-07-20T04:59:04;97953.63;;;15.77
71960;BMP280;59832;51.146;14.024;2023-07-20T05:01:31;97952.81;;;15.84
71960;BMP280;59832;51.146;14.024;2023-07-20T05:03:58;97962.34;;;15.87
71960;BMP280;59832;51.146;14.024;2023-07-20T05:06:24;97956.41;;;15.94
71960;BMP280;59832;51.146;14.024;2023-07-20T05:08:51;97960.03;;;15.96
71960;BMP280;59832;51.146;14.024;2023-07-20T05:11:17;97962.94;;;15.98
71960;BMP280;59832;51.146;14.024;2023-07-20T05:13:44;97959.16;;;16.10
71960;BMP280;59832;51.146;14.024;2023-07-20T05:16:11;97951.47;;;16.10
71960;BMP280;59832;51.146;14.024;2023-07-20T05:18:37;97961.34;;;16.11
71960;BMP280;59832;51.146;14.024;2023-07-20T05:21:05;97958.00;;;16.14
71960;BMP280;59832;51.146;14.024;2023-07-20T05:23:32;97953.59;;;16.15
71960;BMP280;59832;51.146;14.024;2023-07-20T05:25:59;97962.00;;;16.19
71960;BMP280;59832;51.146;14.024;2023-07-20T05:28:26;97946.22;;;16.20
71960;BMP280;59832;51.146;14.024;2023-07-20T05:30:53;97947.63;;;16.25
71960;BMP280;59832;51.146;14.024;2023-07-20T05:33:20;97949.78;;;16.26
71960;BMP280;59832;51.146;14.024;2023-07-20T05:35:47;97952.78;;;16.21
71960;BMP280;59832;51.146;14.024;2023-07-20T05:38:13;97953.13;;;16.23
71960;BMP280;59832;51.146;14.024;2023-07-20T05:40:41;97958.66;;;16.22
71960;BMP280;59832;51.146;14.024;2023-07-20T05:43:10;97959.34;;;16.26
71960;BMP280;59832;51.146;14.024;2023-07-20T05:45:42;97958.63;;;16.25
71960;BMP280;59832;51.146;14.024;2023-07-20T05:48:09;97968.59;;;16.16
71960;BMP280;59832;51.146;14.024;2023-07-20T05:50:43;97958.97;;;16.24
71960;BMP280;59832;51.146;14.024;2023-07-20T05:53:10;97961.13;;;16.29
71960;BMP280;59832;51.146;14.024;2023-07-20T05:55:36;97969.88;;;16.31
71960;BMP280;59832;51.146;14.024;2023-07-20T05:58:03;97963.00;;;16.25
71960;BMP280;59832;51.146;14.024;2023-07-20T06:00:30;97960.78;;;16.27
71960;BMP280;59832;51.146;14.024;2023-07-20T06:02:57;97962.25;;;16.28
71960;BMP280;59832;51.146;14.024;2023-07-20T06:05:24;97966.78;;;16.47
71960;BMP280;59832;51.146;14.024;2023-07-20T06:07:54;97976.47;;;16.63
71960;BMP280;59832;51.146;14.024;2023-07-20T06:10:21;97974.34;;;16.58
71960;BMP280;59832;51.146;14.024;2023-07-20T06:12:48;97971.09;;;16.54
71960;BMP280;59832;51.146;14.024;2023-07-20T06:15:25;97976.53;;;16.59
71960;BMP280;59832;51.146;14.024;2023-07-20T06:17:55;97979.41;;;16.65
71960;BMP280;59832;51.146;14.024;2023-07-20T06:20:22;97981.19;;;16.68
71960;BMP280;59832;51.146;14.024;2023-07-20T06:22:49;97980.75;;;16.73
71960;BMP280;59832;51.146;14.024;2023-07-20T06:25:16;97977.25;;;16.60
71960;BMP280;59832;51.146;14.024;2023-07-20T06:27:43;97976.63;;;16.52
71960;BMP280;59832;51.146;14.024;2023-07-20T06:30:10;97973.78;;;16.43
71960;BMP280;59832;51.146;14.024;2023-07-20T06:32:38;97977.69;;;16.55
71960;BMP280;59832;51.146;14.024;2023-07-20T06:35:05;97983.66;;;16.48
71960;BMP280;59832;51.146;14.024;2023-07-20T06:37:33;97985.97;;;16.39
71960;BMP280;59832;51.146;14.024;2023-07-20T06:40:00;97992.63;;;16.33
71960;BMP280;59832;51.146;14.024;2023-07-20T06:42:29;97988.19;;;16.37
71960;BMP280;59832;51.146;14.024;2023-07-20T06:45:16;97992.63;;;16.33
71960;BMP280;59832;51.146;14.024;2023-07-20T06:47:42;98006.16;;;16.37
71960;BMP280;59832;51.146;14.024;2023-07-20T06:50:10;98005.16;;;16.27
71960;BMP280;59832;51.146;14.024;2023-07-20T06:52:43;98003.25;;;16.35
71960;BMP280;59832;51.146;14.024;2023-07-20T06:55:11;98003.81;;;16.16
71960;BMP280;59832;51.146;14.024;2023-07-20T06:57:37;98009.53;;;15.97
71960;BMP280;59832;51.146;14.024;2023-07-20T07:00:04;98007.00;;;15.90
71960;BMP280;59832;51.146;14.024;2023-07-20T07:02:32;98002.44;;;15.70
71960;BMP280;59832;51.146;14.024;2023-07-20T07:07:43;98019.47;;;15.91
71960;BMP280;59832;51.146;14.024;2023-07-20T07:10:10;98012.03;;;16.04
71960;BMP280;59832;51.146;14.024;2023-07-20T07:12:36;98012.69;;;16.11
71960;BMP280;59832;51.146;14.024;2023-07-20T07:15:04;98011.81;;;16.25
71960;BMP280;59832;51.146;14.024;2023-07-20T07:17:32;98005.47;;;16.33
71960;BMP280;59832;51.146;14.024;2023-07-20T07:20:00;98006.09;;;16.44
71960;BMP280;59832;51.146;14.024;2023-07-20T07:22:27;97998.25;;;16.55
71960;BMP280;59832;51.146;14.024;2023-07-20T07:24:53;97996.06;;;16.53
71960;BMP280;59832;51.146;14.024;2023-07-20T07:27:20;98004.78;;;16.59
71960;BMP280;59832;51.146;14.024;2023-07-20T07:29:46;98005.16;;;16.58
71960;BMP280;59832;51.146;14.024;2023-07-20T07:32:15;98000.16;;;16.77
71960;BMP280;59832;51.146;14.024;2023-07-20T07:34:41;98005.88;;;16.88
71960;BMP280;59832;51.146;14.024;2023-07-20T07:37:08;98005.88;;;16.88
71960;BMP280;59832;51.146;14.024;2023-07-20T07:39:34;98021.22;;;16.96
71960;BMP280;59832;51.146;14.024;2023-07-20T07:42:01;98019.25;;;17.03
71960;BMP280;59832;51.146;14.024;2023-07-20T07:44:27;98011.28;;;16.98
71960;BMP280;59832;51.146;14.024;2023-07-20T07:46:54;98014.50;;;17.02
71960;BMP280;59832;51.146;14.024;2023-07-20T07:49:20;98010.94;;;17.19
71960;BMP280;59832;51.146;14.024;2023-07-20T07:51:47;98014.38;;;17.12
71960;BMP280;59832;51.146;14.024;2023-07-20T07:54:14;98016.53;;;17.14
71960;BMP280;59832;51.146;14.024;2023-07-20T07:56:40;98020.25;;;17.09
71960;BMP280;59832;51.146;14.024;2023-07-20T07:59:07;98022.38;;;17.18
71960;BMP280;59832;51.146;14.024;2023-07-20T08:01:34;98018.09;;;17.34
71960;BMP280;59832;51.146;14.024;2023-07-20T08:04:00;98018.78;;;17.35
71960;BMP280;59832;51.146;14.024;2023-07-20T08:06:27;98026.72;;;17.44
71960;BMP280;59832;51.146;14.024;2023-07-20T08:08:54;98023.34;;;17.51
71960;BMP280;59832;51.146;14.024;2023-07-20T08:11:20;98021.03;;;17.99
71960;BMP280;59832;51.146;14.024;2023-07-20T08:13:47;98015.25;;;18.31
71960;BMP280;59832;51.146;14.024;2023-07-20T08:16:13;98011.06;;;18.21
71960;BMP280;59832;51.146;14.024;2023-07-20T08:18:40;98018.13;;;18.36
71960;BMP280;59832;51.146;14.024;2023-07-20T08:21:07;98011.31;;;18.26
71960;BMP280;59832;51.146;14.024;2023-07-20T08:23:34;98017.34;;;18.20
71960;BMP280;59832;51.146;14.024;2023-07-20T08:26:00;98024.50;;;17.89
71960;BMP280;59832;51.146;14.024;2023-07-20T08:28:27;98019.78;;;17.64
71960;BMP280;59832;51.146;14.024;2023-07-20T08:30:55;98021.78;;;17.53
71960;BMP280;59832;51.146;14.024;2023-07-20T08:33:22;98028.91;;;17.69
71960;BMP280;59832;51.146;14.024;2023-07-20T08:35:49;98033.28;;;17.72
71960;BMP280;59832;51.146;14.024;2023-07-20T08:38:16;98022.34;;;18.27
71960;BMP280;59832;51.146;14.024;2023-07-20T08:40:45;98028.78;;;19.07
71960;BMP280;59832;51.146;14.024;2023-07-20T08:43:13;98015.00;;;19.58
71960;BMP280;59832;51.146;14.024;2023-07-20T08:45:40;98021.75;;;19.23
71960;BMP280;59832;51.146;14.024;2023-07-20T08:48:07;98014.53;;;18.98
71960;BMP280;59832;51.146;14.024;2023-07-20T08:50:34;98025.22;;;18.84
71960;BMP280;59832;51.146;14.024;2023-07-20T08:53:02;98014.50;;;18.34
71960;BMP280;59832;51.146;14.024;2023-07-20T08:55:30;98025.16;;;18.52
71960;BMP280;59832;51.146;14.024;2023-07-20T08:57:58;98025.16;;;19.49
71960;BMP280;59832;51.146;14.024;2023-07-20T09:00:26;98021.97;;;20.28
71960;BMP280;59832;51.146;14.024;2023-07-20T09:02:54;98005.44;;;20.50
71960;BMP280;59832;51.146;14.024;2023-07-20T09:05:23;98016.72;;;20.69
71960;BMP280;59832;51.146;14.024;2023-07-20T09:07:53;98013.28;;;20.47
71960;BMP280;59832;51.146;14.024;2023-07-20T09:10:21;98015.44;;;20.10
71960;BMP280;59832;51.146;14.024;2023-07-20T09:12:48;98015.38;;;19.56
71960;BMP280;59832;51.146;14.024;2023-07-20T09:15:15;98022.28;;;19.31
71960;BMP280;59832;51.146;14.024;2023-07-20T09:17:50;98017.63;;;18.93
71960;BMP280;59832;51.146;14.024;2023-07-20T09:20:18;98021.81;;;18.71
71960;BMP280;59832;51.146;14.024;2023-07-20T09:22:48;98026.78;;;18.26
71960;BMP280;59832;51.146;14.024;2023-07-20T09:25:18;98023.22;;;18.20
71960;BMP280;59832;51.146;14.024;2023-07-20T09:28:05;98026.28;;;18.31
71960;BMP280;59832;51.146;14.024;2023-07-20T09:30:32;98029.94;;;18.34
71960;BMP280;59832;51.146;14.024;2023-07-20T09:33:00;98030.78;;;18.47
71960;BMP280;59832;51.146;14.024;2023-07-20T09:35:27;98025.75;;;18.40
71960;BMP280;59832;51.146;14.024;2023-07-20T09:38:07;98033.25;;;18.86
71960;BMP280;59832;51.146;14.024;2023-07-20T09:40:39;98041.63;;;19.55
71960;BMP280;59832;51.146;14.024;2023-07-20T09:43:09;98026.81;;;20.26
71960;BMP280;59832;51.146;14.024;2023-07-20T09:45:41;98028.47;;;20.95
71960;BMP280;59832;51.146;14.024;2023-07-20T09:48:11;98019.34;;;21.59
71960;BMP280;59832;51.146;14.024;2023-07-20T09:50:48;98018.38;;;22.27
71960;BMP280;59832;51.146;14.024;2023-07-20T09:53:16;98019.97;;;22.25
71960;BMP280;59832;51.146;14.024;2023-07-20T09:55:45;98006.50;;;21.77
71960;BMP280;59832;51.146;14.024;2023-07-20T09:58:12;98010.44;;;21.91
71960;BMP280;59832;51.146;14.024;2023-07-20T10:00:40;98007.59;;;21.46
71960;BMP280;59832;51.146;14.024;2023-07-20T10:03:19;98008.69;;;20.89
71960;BMP280;59832;51.146;14.024;2023-07-20T10:05:58;98012.41;;;20.12
71960;BMP280;59832;51.146;14.024;2023-07-20T10:08:38;98012.72;;;19.60
71960;BMP280;59832;51.146;14.024;2023-07-20T10:11:11;98017.78;;;19.19
71960;BMP280;59832;51.146;14.024;2023-07-20T10:13:40;98021.91;;;19.00
71960;BMP280;59832;51.146;14.024;2023-07-20T10:16:11;98029.22;;;18.85
71960;BMP280;59832;51.146;14.024;2023-07-20T10:18:47;98029.28;;;18.66
71960;BMP280;59832;51.146;14.024;2023-07-20T10:21:20;98051.88;;;18.03
71960;BMP280;59832;51.146;14.024;2023-07-20T10:23:52;98056.09;;;17.70
71960;BMP280;59832;51.146;14.024;2023-07-20T10:26:18;98060.59;;;17.43
71960;BMP280;59832;51.146;14.024;2023-07-20T10:28:45;98070.63;;;17.33
71960;BMP280;59832;51.146;14.024;2023-07-20T10:31:14;98063.97;;;17.36
71960;BMP280;59832;51.146;14.024;2023-07-20T10:33:42;98063.66;;;17.34
71960;BMP280;59832;51.146;14.024;2023-07-20T10:36:09;98057.81;;;17.30
71960;BMP280;59832;51.146;14.024;2023-07-20T10:41:34;98060.41;;;17.30
71960;BMP280;59832;51.146;14.024;2023-07-20T10:44:07;98060.63;;;17.39
71960;BMP280;59832;51.146;14.024;2023-07-20T10:49:07;98053.81;;;17.52
71960;BMP280;59832;51.146;14.024;2023-07-20T10:54:08;98053.81;;;17.75
71960;BMP280;59832;51.146;14.024;2023-07-20T10:56:35;98055.88;;;18.04
71960;BMP280;59832;51.146;14.024;2023-07-20T10:59:17;98052.16;;;18.28
71960;BMP280;59832;51.146;14.024;2023-07-20T11:01:47;98046.31;;;18.24
71960;BMP280;59832;51.146;14.024;2023-07-20T11:04:19;98052.72;;;18.55
71960;BMP280;59832;51.146;14.024;2023-07-20T11:06:46;98054.97;;;19.05
71960;BMP280;59832;51.146;14.024;2023-07-20T11:09:14;98046.41;;;19.24
71960;BMP280;59832;51.146;14.024;2023-07-20T11:12:09;98041.31;;;19.37
71960;BMP280;59832;51.146;14.024;2023-07-20T11:14:40;98038.97;;;19.42
71960;BMP280;59832;51.146;14.024;2023-07-20T11:17:14;98033.41;;;20.14
71960;BMP280;59832;51.146;14.024;2023-07-20T11:19:41;98030.25;;;20.60
71960;BMP280;59832;51.146;14.024;2023-07-20T11:22:11;98021.16;;;20.56
71960;BMP280;59832;51.146;14.024;2023-07-20T11:24:39;98026.53;;;20.87
71960;BMP280;59832;51.146;14.024;2023-07-20T11:27:06;98024.16;;;21.14
71960;BMP280;59832;51.146;14.024;2023-07-20T11:29:32;98014.31;;;21.21
71960;BMP280;59832;51.146;14.024;2023-07-20T11:32:01;98020.91;;;21.35
71960;BMP280;59832;51.146;14.024;2023-07-20T11:34:32;98017.94;;;20.39
71960;BMP280;59832;51.146;14.024;2023-07-20T11:37:00;98010.31;;;20.61
71960;BMP280;59832;51.146;14.024;2023-07-20T11:39:29;98008.91;;;20.94
71960;BMP280;59832;51.146;14.024;2023-07-20T11:41:56;98010.38;;;21.51
71960;BMP280;59832;51.146;14.024;2023-07-20T11:44:26;98003.88;;;21.47
71960;BMP280;59832;51.146;14.024;2023-07-20T11:47:10;98000.25;;;21.44
71960;BMP280;59832;51.146;14.024;2023-07-20T11:49:40;97992.38;;;21.48
71960;BMP280;59832;51.146;14.024;2023-07-20T11:52:08;97999.44;;;21.78
71960;BMP280;59832;51.146;14.024;2023-07-20T11:54:38;97989.66;;;21.73
71960;BMP280;59832;51.146;14.024;2023-07-20T11:57:05;97992.97;;;21.30
71960;BMP280;59832;51.146;14.024;2023-07-20T11:59:33;98002.97;;;21.06
71960;BMP280;59832;51.146;14.024;2023-07-20T12:02:03;97995.16;;;21.40
71960;BMP280;59832;51.146;14.024;2023-07-20T12:04:33;97999.25;;;21.63
71960;BMP280;59832;51.146;14.024;2023-07-20T12:07:01;97999.59;;;22.05
71960;BMP280;59832;51.146;14.024;2023-07-20T12:09:27;98001.91;;;22.12
71960;BMP280;59832;51.146;14.024;2023-07-20T12:12:14;97985.19;;;21.52
71960;BMP280;59832;51.146;14.024;2023-07-20T12:14:41;97983.69;;;21.42
71960;BMP280;59832;51.146;14.024;2023-07-20T12:17:08;97991.69;;;21.34
71960;BMP280;59832;51.146;14.024;2023-07-20T12:19:38;97999.28;;;21.72
71960;BMP280;59832;51.146;14.024;2023-07-20T12:22:06;97989.66;;;21.73
71960;BMP280;59832;51.146;14.024;2023-07-20T12:24:33;97989.78;;;21.48
71960;BMP280;59832;51.146;14.024;2023-07-20T12:27:00;97996.00;;;21.16
71960;BMP280;59832;51.146;14.024;2023-07-20T12:29:26;97992.28;;;21.17
71960;BMP280;59832;51.146;14.024;2023-07-20T12:31:54;98004.00;;;21.09
71960;BMP280;59832;51.146;14.024;2023-07-20T12:34:20;97999.59;;;20.84
71960;BMP280;59832;51.146;14.024;2023-07-20T12:36:47;98007.50;;;20.68
71960;BMP280;59832;51.146;14.024;2023-07-20T12:39:14;98010.19;;;20.64
71960;BMP280;59832;51.146;14.024;2023-07-20T12:41:40;98008.13;;;20.34
71960;BMP280;59832;51.146;14.024;2023-07-20T12:44:07;98012.97;;;20.19
71960;BMP280;59832;51.146;14.024;2023-07-20T12:46:33;98006.72;;;19.92
71960;BMP280;59832;51.146;14.024;2023-07-20T12:49:03;98009.78;;;20.15
71960;BMP280;59832;51.146;14.024;2023-07-20T12:51:29;98010.06;;;20.17
71960;BMP280;59832;51.146;14.024;2023-07-20T12:53:56;97996.44;;;20.17
71960;BMP280;59832;51.146;14.024;2023-07-20T12:56:22;98001.19;;;20.31
71960;BMP280;59832;51.146;14.024;2023-07-20T12:58:52;98004.28;;;20.26
71960;BMP280;59832;51.146;14.024;2023-07-20T13:01:18;98005.94;;;20.20
71960;BMP280;59832;51.146;14.024;2023-07-20T13:03:45;98006.56;;;20.11
71960;BMP280;59832;51.146;14.024;2023-07-20T13:06:15;98003.78;;;20.31
71960;BMP280;59832;51.146;14.024;2023-07-20T13:08:45;98005.13;;;20.61
71960;BMP280;59832;51.146;14.024;2023-07-20T13:11:12;98005.84;;;20.74
71960;BMP280;59832;51.146;14.024;2023-07-20T13:13:44;98008.53;;;20.58
71960;BMP280;59832;51.146;14.024;2023-07-20T13:16:11;98002.28;;;20.80
71960;BMP280;59832;51.146;14.024;2023-07-20T13:18:41;98008.41;;;20.87
71960;BMP280;59832;51.146;14.024;2023-07-20T13:21:14;98008.78;;;20.98
71960;BMP280;59832;51.146;14.024;2023-07-20T13:23:41;98013.59;;;20.49
71960;BMP280;59832;51.146;14.024;2023-07-20T13:26:07;98004.91;;;20.30
71960;BMP280;59832;51.146;14.024;2023-07-20T13:28:37;98011.53;;;20.31
71960;BMP280;59832;51.146;14.024;2023-07-20T13:31:06;98009.16;;;20.37
71960;BMP280;59832;51.146;14.024;2023-07-20T13:33:41;98009.97;;;20.21
71960;BMP280;59832;51.146;14.024;2023-07-20T13:36:21;98003.66;;;20.22
71960;BMP280;59832;51.146;14.024;2023-07-20T13:38:48;97988.56;;;20.20
71960;BMP280;59832;51.146;14.024;2023-07-20T13:41:20;97991.69;;;20.28
71960;BMP280;59832;51.146;14.024;2023-07-20T13:43:48;97986.19;;;20.13
71960;BMP280;59832;51.146;14.024;2023-07-20T13:46:14;97989.19;;;20.25
71960;BMP280;59832;51.146;14.024;2023-07-20T13:49:01;97988.28;;;20.18
71960;BMP280;59832;51.146;14.024;2023-07-20T13:54:38;97989.16;;;19.99
71960;BMP280;59832;51.146;14.024;2023-07-20T13:57:13;97982.84;;;19.75
71960;BMP280;59832;51.146;14.024;2023-07-20T13:59:42;97985.09;;;19.73
71960;BMP280;59832;51.146;14.024;2023-07-20T14:02:10;97982.91;;;19.72
71960;BMP280;59832;51.146;14.024;2023-07-20T14:04:40;97987.41;;;19.84
71960;BMP280;59832;51.146;14.024;2023-07-20T14:07:08;97994.47;;;20.08
71960;BMP280;59832;51.146;14.024;2023-07-20T14:09:36;97996.41;;;20.04
71960;BMP280;59832;51.146;14.024;2023-07-20T14:12:03;97994.94;;;19.91
71960;BMP280;59832;51.146;14.024;2023-07-20T14:14:33;98004.66;;;20.12
71960;BMP280;59832;51.146;14.024;2023-07-20T14:17:00;98003.41;;;20.04
71960;BMP280;59832;51.146;14.024;2023-07-20T14:19:27;97996.44;;;20.17
71960;BMP280;59832;51.146;14.024;2023-07-20T14:21:54;97997.16;;;20.30
71960;BMP280;59832;51.146;14.024;2023-07-20T14:24:21;98007.78;;;20.19
71960;BMP280;59832;51.146;14.024;2023-07-20T14:26:49;97992.84;;;20.27
71960;BMP280;59832;51.146;14.024;2023-07-20T14:29:17;98007.97;;;20.12
71960;BMP280;59832;51.146;14.024;2023-07-20T14:31:47;97999.13;;;20.26
71960;BMP280;59832;51.146;14.024;2023-07-20T14:34:19;98006.03;;;20.29
71960;BMP280;59832;51.146;14.024;2023-07-20T14:36:46;98011.94;;;20.17
71960;BMP280;59832;51.146;14.024;2023-07-20T14:39:13;98014.72;;;20.10
71960;BMP280;59832;51.146;14.024;2023-07-20T14:41:40;98010.56;;;20.12
71960;BMP280;59832;51.146;14.024;2023-07-20T14:44:10;98019.66;;;20.04
71960;BMP280;59832;51.146;14.024;2023-07-20T14:46:36;98019.97;;;20.06
71960;BMP280;59832;51.146;14.024;2023-07-20T14:49:03;98024.16;;;19.88
71960;BMP280;59832;51.146;14.024;2023-07-20T14:51:46;98016.09;;;19.86
71960;BMP280;59832;51.146;14.024;2023-07-20T14:54:27;98022.56;;;20.06
71960;BMP280;59832;51.146;14.024;2023-07-20T14:56:57;98021.31;;;19.98
71960;BMP280;59832;51.146;14.024;2023-07-20T14:59:24;98010.69;;;20.09
71960;BMP280;59832;51.146;14.024;2023-07-20T15:01:51;98003.78;;;20.31
71960;BMP280;59832;51.146;14.024;2023-07-20T15:04:19;98011.50;;;20.06
71960;BMP280;59832;51.146;14.024;2023-07-20T15:06:46;98010.69;;;20.09
71960;BMP280;59832;51.146;14.024;2023-07-20T15:09:13;98014.22;;;20.15
71960;BMP280;59832;51.146;14.024;2023-07-20T15:11:40;98012.38;;;19.87
71960;BMP280;59832;51.146;14.024;2023-07-20T15:14:07;98007.84;;;20.03
71960;BMP280;59832;51.146;14.024;2023-07-20T15:16:34;98001.69;;;20.01
71960;BMP280;59832;51.146;14.024;2023-07-20T15:19:02;98008.59;;;20.04
71960;BMP280;59832;51.146;14.024;2023-07-20T15:21:29;98005.94;;;20.07
71960;BMP280;59832;51.146;14.024;2023-07-20T15:23:58;97996.03;;;20.18
71960;BMP280;59832;51.146;14.024;2023-07-20T15:26:25;97995.81;;;20.26
71960;BMP280;59832;51.146;14.024;2023-07-20T15:28:52;97995.69;;;20.29
71960;BMP280;59832;51.146;14.024;2023-07-20T15:31:22;97983.72;;;20.23
71960;BMP280;59832;51.146;14.024;2023-07-20T15:34:13;97989.72;;;20.07
71960;BMP280;59832;51.146;14.024;2023-07-20T15:36:41;97989.91;;;20.00
71960;BMP280;59832;51.146;14.024;2023-07-20T15:39:08;97997.34;;;20.10
71960;BMP280;59832;51.146;14.024;2023-07-20T15:41:38;97993.97;;;20.26
71960;BMP280;59832;51.146;14.024;2023-07-20T15:44:05;97994.28;;;20.15
71960;BMP280;59832;51.146;14.024;2023-07-20T15:46:47;97991.34;;;20.01
71960;BMP280;59832;51.146;14.024;2023-07-20T15:49:15;97990.31;;;19.98
71960;BMP280;59832;51.146;14.024;2023-07-20T15:51:42;97997.41;;;19.82
71960;BMP280;59832;51.146;14.024;2023-07-20T15:54:09;97993.50;;;20.02
71960;BMP280;59832;51.146;14.024;2023-07-20T15:56:40;97996.22;;;20.11
71960;BMP280;59832;51.146;14.024;2023-07-20T15:59:11;98002.03;;;20.15
71960;BMP280;59832;51.146;14.024;2023-07-20T16:01:39;97998.50;;;20.09
71960;BMP280;59832;51.146;14.024;2023-07-20T16:04:11;97993.13;;;20.16
71960;BMP280;59832;51.146;14.024;2023-07-20T16:06:40;97989.09;;;20.41
71960;BMP280;59832;51.146;14.024;2023-07-20T16:09:11;97995.19;;;20.59
71960;BMP280;59832;51.146;14.024;2023-07-20T16:11:39;97986.53;;;21.00
71960;BMP280;59832;51.146;14.024;2023-07-20T16:14:06;97988.53;;;21.30
71960;BMP280;59832;51.146;14.024;2023-07-20T16:16:39;97987.94;;;21.79
71960;BMP280;59832;51.146;14.024;2023-07-20T16:19:14;97982.41;;;21.89
71960;BMP280;59832;51.146;14.024;2023-07-20T16:22:08;97983.59;;;21.32
71960;BMP280;59832;51.146;14.024;2023-07-20T16:24:47;97986.84;;;21.24
71960;BMP280;59832;51.146;14.024;2023-07-20T16:27:18;97982.63;;;20.96
71960;BMP280;59832;51.146;14.024;2023-07-20T16:29:46;97987.75;;;20.74
71960;BMP280;59832;51.146;14.024;2023-07-20T16:32:21;97990.84;;;20.56
71960;BMP280;59832;51.146;14.024;2023-07-20T16:34:52;97979.69;;;20.09
71960;BMP280;59832;51.146;14.024;2023-07-20T16:37:21;97978.75;;;19.90
71960;BMP280;59832;51.146;14.024;2023-07-20T16:39:54;97978.56;;;20.35
71960;BMP280;59832;51.146;14.024;2023-07-20T16:42:23;97987.84;;;20.45
71960;BMP280;59832;51.146;14.024;2023-07-20T16:44:53;97984.53;;;20.45
71960;BMP280;59832;51.146;14.024;2023-07-20T16:47:28;97986.31;;;20.35
71960;BMP280;59832;51.146;14.024;2023-07-20T16:49:55;97987.44;;;20.21
71960;BMP280;59832;51.146;14.024;2023-07-20T16:52:25;97987.94;;;20.16
71960;BMP280;59832;51.146;14.024;2023-07-20T16:54:55;97985.66;;;20.06
71960;BMP280;59832;51.146;14.024;2023-07-20T16:57:22;97982.78;;;20.16
71960;BMP280;59832;51.146;14.024;2023-07-20T16:59:49;97984.53;;;20.19
71960;BMP280;59832;51.146;14.024;2023-07-20T17:02:19;97982.69;;;20.07
71960;BMP280;59832;51.146;14.024;2023-07-20T17:04:50;97986.38;;;19.94
71960;BMP280;59832;51.146;14.024;2023-07-20T17:07:20;97981.81;;;19.85
71960;BMP280;59832;51.146;14.024;2023-07-20T17:09:49;97983.13;;;19.77
71960;BMP280;59832;51.146;14.024;2023-07-20T17:12:16;97981.84;;;19.98
71960;BMP280;59832;51.146;14.024;2023-07-20T17:14:44;97980.13;;;20.33
71960;BMP280;59832;51.146;14.024;2023-07-20T17:17:11;97981.50;;;20.71
71960;BMP280;59832;51.146;14.024;2023-07-20T17:19:38;97970.59;;;21.02
71960;BMP280;59832;51.146;14.024;2023-07-20T17:22:05;97976.88;;;21.35
71960;BMP280;59832;51.146;14.024;2023-07-20T17:24:32;97972.22;;;21.52
71960;BMP280;59832;51.146;14.024;2023-07-20T17:27:02;97974.53;;;21.71
71960;BMP280;59832;51.146;14.024;2023-07-20T17:29:32;97971.44;;;21.64
71960;BMP280;59832;51.146;14.024;2023-07-20T17:32:04;97968.25;;;21.60
71960;BMP280;59832;51.146;14.024;2023-07-20T17:34:34;97974.72;;;21.55
71960;BMP280;59832;51.146;14.024;2023-07-20T17:37:02;97977.13;;;21.71
71960;BMP280;59832;51.146;14.024;2023-07-20T17:39:33;97980.72;;;21.74
71960;BMP280;59832;51.146;14.024;2023-07-20T17:42:03;97981.81;;;21.64
71960;BMP280;59832;51.146;14.024;2023-07-20T17:44:58;97965.84;;;21.44
71960;BMP280;59832;51.146;14.024;2023-07-20T17:47:39;97967.75;;;21.21
71960;BMP280;59832;51.146;14.024;2023-07-20T17:50:07;97969.78;;;21.26
71960;BMP280;59832;51.146;14.024;2023-07-20T17:52:44;97968.75;;;21.02
71960;BMP280;59832;51.146;14.024;2023-07-20T17:55:14;97971.06;;;20.75
71960;BMP280;59832;51.146;14.024;2023-07-20T17:57:48;97974.81;;;20.74
71960;BMP280;59832;51.146;14.024;2023-07-20T18:00:25;97971.50;;;20.73
71960;BMP280;59832;51.146;14.024;2023-07-20T18:03:01;97970.25;;;20.65
71960;BMP280;59832;51.146;14.024;2023-07-20T18:05:38;97968.59;;;20.46
71960;BMP280;59832;51.146;14.024;2023-07-20T18:08:15;97961.91;;;20.36
71960;BMP280;59832;51.146;14.024;2023-07-20T18:10:45;97963.56;;;20.17
71960;BMP280;59832;51.146;14.024;2023-07-20T18:13:23;97961.19;;;19.98
71960;BMP280;59832;51.146;14.024;2023-07-20T18:16:01;97963.50;;;19.80
71960;BMP280;59832;51.146;14.024;2023-07-20T18:18:30;97970.81;;;19.69
71960;BMP280;59832;51.146;14.024;2023-07-20T18:21:00;97970.38;;;19.57
71960;BMP280;59832;51.146;14.024;2023-07-20T18:23:28;97967.97;;;19.50